sensor_id;sensor_type;location;lat;lon;timestamp;temperature;humidity
20005;DHT22;69160;45.498;-73.582;2023-06-19T00:01:24;24.10;76.50
20005;DHT22;69160;45.498;-73.582;2023-06-19T00:03:50;24.10;76.50
20005;DHT22;69160;45.498;-73.582;2023-06-19T00:06:16;24.10;76.60
20005;DHT22;69160;45.498;-73.582;2023-06-19T00:08:42;24.10;76.50
20005;DHT22;69160;45.498;-73.582;2023-06-19T00:11:08;24.10;76.50
20005;DHT22;69160;45.498;-73.582;2023-06-19T00:13:34;24.10;76.50
20005;DHT22;69160;45.498;-73.582;2023-06-19T00:16:01;24.20;77.00
20005;DHT22;69160;45.498;-73.582;2023-06-19T00:18:30;24.10;76.90
20005;DHT22;69160;45.498;-73.582;2023-06-19T00:20:56;24.10;76.30
20005;DHT22;69160;45.498;-73.582;2023-06-19T00:23:23;24.20;78.10
20005;DHT22;69160;45.498;-73.582;2023-06-19T00:25:49;24.20;78.30
20005;DHT22;69160;45.498;-73.582;2023-06-19T00:28:15;24.30;77.60
20005;DHT22;69160;45.498;-73.582;2023-06-19T00:30:45;24.20;75.50
20005;DHT22;69160;45.498;-73.582;2023-06-19T00:33:11;24.10;74.20
20005;DHT22;69160;45.498;-73.582;2023-06-19T00:35:38;24.10;73.80
20005;DHT22;69160;45.498;-73.582;2023-06-19T00:38:05;24.10;74.30
20005;DHT22;69160;45.498;-73.582;2023-06-19T00:40:33;24.10;74.90
20005;DHT22;69160;45.498;-73.582;2023-06-19T00:43:00;24.20;75.30
20005;DHT22;69160;45.498;-73.582;2023-06-19T00:45:27;24.20;75.40
20005;DHT22;69160;45.498;-73.582;2023-06-19T00:47:57;24.20;74.90
20005;DHT22;69160;45.498;-73.582;2023-06-19T00:50:24;24.10;73.00
20005;DHT22;69160;45.498;-73.582;2023-06-19T00:52:50;24.10;74.70
20005;DHT22;69160;45.498;-73.582;2023-06-19T00:55:17;24.20;75.10
20005;DHT22;69160;45.498;-73.582;2023-06-19T00:57:43;24.20;75.60
20005;DHT22;69160;45.498;-73.582;2023-06-19T01:00:10;24.20;75.10
20005;DHT22;69160;45.498;-73.582;2023-06-19T01:02:39;24.20;75.10
20005;DHT22;69160;45.498;-73.582;2023-06-19T01:05:05;24.20;75.10
20005;DHT22;69160;45.498;-73.582;2023-06-19T01:07:58;24.20;75.10
20005;DHT22;69160;45.498;-73.582;2023-06-19T01:10:33;24.20;75.20
20005;DHT22;69160;45.498;-73.582;2023-06-19T01:13:05;24.20;75.20
20005;DHT22;69160;45.498;-73.582;2023-06-19T01:15:35;24.20;75.20
20005;DHT22;69160;45.498;-73.582;2023-06-19T01:18:02;24.20;75.30
20005;DHT22;69160;45.498;-73.582;2023-06-19T01:20:28;24.20;75.60
20005;DHT22;69160;45.498;-73.582;2023-06-19T01:22:57;24.20;75.30
20005;DHT22;69160;45.498;-73.582;2023-06-19T01:25:24;24.20;75.40
20005;DHT22;69160;45.498;-73.582;2023-06-19T01:27:50;24.20;75.70
20005;DHT22;69160;45.498;-73.582;2023-06-19T01:30:17;24.20;75.70
20005;DHT22;69160;45.498;-73.582;2023-06-19T01:35:36;24.20;75.50
20005;DHT22;69160;45.498;-73.582;2023-06-19T01:38:03;24.20;75.30
20005;DHT22;69160;45.498;-73.582;2023-06-19T01:40:30;24.20;75.50
20005;DHT22;69160;45.498;-73.582;2023-06-19T01:42:58;24.20;75.30
20005;DHT22;69160;45.498;-73.582;2023-06-19T01:45:29;24.20;75.40
20005;DHT22;69160;45.498;-73.582;2023-06-19T01:47:56;24.20;75.30
20005;DHT22;69160;45.498;-73.582;2023-06-19T01:50:23;24.20;75.20
20005;DHT22;69160;45.498;-73.582;2023-06-19T01:52:50;24.10;73.70
20005;DHT22;69160;45.498;-73.582;2023-06-19T01:55:16;23.90;72.20
20005;DHT22;69160;45.498;-73.582;2023-06-19T01:57:42;23.80;71.40
20005;DHT22;69160;45.498;-73.582;2023-06-19T02:00:09;23.80;72.50
20005;DHT22;69160;45.498;-73.582;2023-06-19T02:02:38;23.80;72.70
20005;DHT22;69160;45.498;-73.582;2023-06-19T02:05:05;23.80;73.20
20005;DHT22;69160;45.498;-73.582;2023-06-19T02:07:31;23.90;73.40
20005;DHT22;69160;45.498;-73.582;2023-06-19T02:09:57;24.00;73.80
20005;DHT22;69160;45.498;-73.582;2023-06-19T02:12:24;24.00;73.90
20005;DHT22;69160;45.498;-73.582;2023-06-19T02:14:50;24.00;74.30
20005;DHT22;69160;45.498;-73.582;2023-06-19T02:17:16;24.00;74.20
20005;DHT22;69160;45.498;-73.582;2023-06-19T02:19:42;24.00;74.40
20005;DHT22;69160;45.498;-73.582;2023-06-19T02:22:08;24.00;74.40
20005;DHT22;69160;45.498;-73.582;2023-06-19T02:24:35;24.00;74.50
20005;DHT22;69160;45.498;-73.582;2023-06-19T02:27:03;24.00;74.60
20005;DHT22;69160;45.498;-73.582;2023-06-19T02:29:29;24.00;74.70
20005;DHT22;69160;45.498;-73.582;2023-06-19T02:31:55;24.00;74.70
20005;DHT22;69160;45.498;-73.582;2023-06-19T02:34:22;24.00;74.80
20005;DHT22;69160;45.498;-73.582;2023-06-19T02:36:50;24.00;74.70
20005;DHT22;69160;45.498;-73.582;2023-06-19T02:39:16;24.00;74.80
20005;DHT22;69160;45.498;-73.582;2023-06-19T02:41:42;24.00;74.70
20005;DHT22;69160;45.498;-73.582;2023-06-19T02:44:14;24.00;74.80
20005;DHT22;69160;45.498;-73.582;2023-06-19T02:46:40;24.10;74.90
20005;DHT22;69160;45.498;-73.582;2023-06-19T02:49:06;24.00;74.90
20005;DHT22;69160;45.498;-73.582;2023-06-19T02:51:32;24.00;74.80
20005;DHT22;69160;45.498;-73.582;2023-06-19T02:53:59;24.00;74.90
20005;DHT22;69160;45.498;-73.582;2023-06-19T02:56:25;24.00;74.90
20005;DHT22;69160;45.498;-73.582;2023-06-19T02:58:52;24.00;74.60
20005;DHT22;69160;45.498;-73.582;2023-06-19T03:01:18;23.80;72.40
20005;DHT22;69160;45.498;-73.582;2023-06-19T03:03:44;23.60;71.40
20005;DHT22;69160;45.498;-73.582;2023-06-19T03:06:12;23.60;72.00
20005;DHT22;69160;45.498;-73.582;2023-06-19T03:08:40;23.60;72.40
20005;DHT22;69160;45.498;-73.582;2023-06-19T03:11:07;23.70;73.10
20005;DHT22;69160;45.498;-73.582;2023-06-19T03:13:51;23.70;73.10
20005;DHT22;69160;45.498;-73.582;2023-06-19T03:16:17;23.80;73.30
20005;DHT22;69160;45.498;-73.582;2023-06-19T03:18:44;23.90;73.40
20005;DHT22;69160;45.498;-73.582;2023-06-19T03:21:11;23.80;73.50
20005;DHT22;69160;45.498;-73.582;2023-06-19T03:23:38;23.80;74.00
20005;DHT22;69160;45.498;-73.582;2023-06-19T03:26:04;23.90;74.10
20005;DHT22;69160;45.498;-73.582;2023-06-19T03:28:30;23.90;74.10
20005;DHT22;69160;45.498;-73.582;2023-06-19T03:30:56;23.90;74.40
20005;DHT22;69160;45.498;-73.582;2023-06-19T03:33:22;23.90;74.40
20005;DHT22;69160;45.498;-73.582;2023-06-19T03:35:48;23.90;74.40
20005;DHT22;69160;45.498;-73.582;2023-06-19T03:38:14;23.90;74.40
20005;DHT22;69160;45.498;-73.582;2023-06-19T03:40:41;23.90;74.40
20005;DHT22;69160;45.498;-73.582;2023-06-19T03:43:07;23.90;74.60
20005;DHT22;69160;45.498;-73.582;2023-06-19T03:45:33;23.90;74.80
20005;DHT22;69160;45.498;-73.582;2023-06-19T03:47:59;23.90;74.60
20005;DHT22;69160;45.498;-73.582;2023-06-19T03:50:25;23.90;74.90
20005;DHT22;69160;45.498;-73.582;2023-06-19T03:52:51;23.90;75.00
20005;DHT22;69160;45.498;-73.582;2023-06-19T03:55:18;23.90;75.10
20005;DHT22;69160;45.498;-73.582;2023-06-19T03:57:44;23.90;75.00
20005;DHT22;69160;45.498;-73.582;2023-06-19T04:00:10;23.90;75.00
20005;DHT22;69160;45.498;-73.582;2023-06-19T04:02:39;23.90;75.20
20005;DHT22;69160;45.498;-73.582;2023-06-19T04:05:08;23.90;74.80
20005;DHT22;69160;45.498;-73.582;2023-06-19T04:07:34;23.80;72.90
20005;DHT22;69160;45.498;-73.582;2023-06-19T04:10:00;23.60;71.80
20005;DHT22;69160;45.498;-73.582;2023-06-19T04:12:26;23.40;72.00
20005;DHT22;69160;45.498;-73.582;2023-06-19T04:14:53;23.50;72.70
20005;DHT22;69160;45.498;-73.582;2023-06-19T04:17:19;23.50;73.00
20005;DHT22;69160;45.498;-73.582;2023-06-19T04:19:45;23.60;73.30
20005;DHT22;69160;45.498;-73.582;2023-06-19T04:22:11;23.60;73.40
20005;DHT22;69160;45.498;-73.582;2023-06-19T04:24:38;23.60;73.50
20005;DHT22;69160;45.498;-73.582;2023-06-19T04:27:04;23.70;73.70
20005;DHT22;69160;45.498;-73.582;2023-06-19T04:29:30;23.70;74.00
20005;DHT22;69160;45.498;-73.582;2023-06-19T04:32:01;23.70;73.70
20005;DHT22;69160;45.498;-73.582;2023-06-19T04:34:29;23.70;73.60
20005;DHT22;69160;45.498;-73.582;2023-06-19T04:36:55;23.70;73.70
20005;DHT22;69160;45.498;-73.582;2023-06-19T04:39:24;23.80;74.10
20005;DHT22;69160;45.498;-73.582;2023-06-19T04:41:51;23.70;73.90
20005;DHT22;69160;45.498;-73.582;2023-06-19T04:44:17;23.80;74.00
20005;DHT22;69160;45.498;-73.582;2023-06-19T04:46:43;23.70;73.90
20005;DHT22;69160;45.498;-73.582;2023-06-19T04:49:12;23.70;74.00
20005;DHT22;69160;45.498;-73.582;2023-06-19T04:51:39;23.70;74.00
20005;DHT22;69160;45.498;-73.582;2023-06-19T04:54:05;23.70;74.20
20005;DHT22;69160;45.498;-73.582;2023-06-19T04:56:31;23.70;74.00
20005;DHT22;69160;45.498;-73.582;2023-06-19T04:58:58;23.80;74.00
20005;DHT22;69160;45.498;-73.582;2023-06-19T05:01:26;23.70;73.90
20005;DHT22;69160;45.498;-73.582;2023-06-19T05:03:56;23.80;73.90
20005;DHT22;69160;45.498;-73.582;2023-06-19T05:06:26;23.80;73.70
20005;DHT22;69160;45.498;-73.582;2023-06-19T05:08:52;23.80;73.70
20005;DHT22;69160;45.498;-73.582;2023-06-19T05:11:18;23.80;73.90
20005;DHT22;69160;45.498;-73.582;2023-06-19T05:13:44;23.70;71.70
20005;DHT22;69160;45.498;-73.582;2023-06-19T05:16:11;23.50;71.10
20005;DHT22;69160;45.498;-73.582;2023-06-19T05:18:40;23.50;71.90
20005;DHT22;69160;45.498;-73.582;2023-06-19T05:21:06;23.50;72.30
20005;DHT22;69160;45.498;-73.582;2023-06-19T05:23:33;23.60;72.30
20005;DHT22;69160;45.498;-73.582;2023-06-19T05:26:00;23.60;72.30
20005;DHT22;69160;45.498;-73.582;2023-06-19T05:28:26;23.60;72.40
20005;DHT22;69160;45.498;-73.582;2023-06-19T05:30:53;23.60;72.90
20005;DHT22;69160;45.498;-73.582;2023-06-19T05:33:19;23.60;72.60
20005;DHT22;69160;45.498;-73.582;2023-06-19T05:35:45;23.60;73.00
20005;DHT22;69160;45.498;-73.582;2023-06-19T05:38:18;23.60;73.00
20005;DHT22;69160;45.498;-73.582;2023-06-19T05:40:44;23.60;72.90
20005;DHT22;69160;45.498;-73.582;2023-06-19T05:43:10;23.60;72.70
20005;DHT22;69160;45.498;-73.582;2023-06-19T05:45:37;23.60;73.00
20005;DHT22;69160;45.498;-73.582;2023-06-19T05:48:03;23.60;72.60
20005;DHT22;69160;45.498;-73.582;2023-06-19T05:50:30;23.60;72.70
20005;DHT22;69160;45.498;-73.582;2023-06-19T05:52:56;23.60;72.30
20005;DHT22;69160;45.498;-73.582;2023-06-19T05:55:22;23.60;72.60
20005;DHT22;69160;45.498;-73.582;2023-06-19T05:57:50;23.60;72.70
20005;DHT22;69160;45.498;-73.582;2023-06-19T06:00:17;23.60;73.00
20005;DHT22;69160;45.498;-73.582;2023-06-19T06:02:43;23.60;72.50
20005;DHT22;69160;45.498;-73.582;2023-06-19T06:05:09;23.60;72.70
20005;DHT22;69160;45.498;-73.582;2023-06-19T06:07:35;23.60;72.40
20005;DHT22;69160;45.498;-73.582;2023-06-19T06:10:02;23.60;72.70
20005;DHT22;69160;45.498;-73.582;2023-06-19T06:12:28;23.60;72.70
20005;DHT22;69160;45.498;-73.582;2023-06-19T06:14:54;23.60;73.10
20005;DHT22;69160;45.498;-73.582;2023-06-19T06:17:20;23.60;71.40
20005;DHT22;69160;45.498;-73.582;2023-06-19T06:19:46;23.40;69.60
20005;DHT22;69160;45.498;-73.582;2023-06-19T06:22:12;23.30;71.10
20005;DHT22;69160;45.498;-73.582;2023-06-19T06:24:38;23.30;71.30
20005;DHT22;69160;45.498;-73.582;2023-06-19T06:27:05;23.40;71.20
20005;DHT22;69160;45.498;-73.582;2023-06-19T06:29:31;23.40;72.00
20005;DHT22;69160;45.498;-73.582;2023-06-19T06:32:05;23.40;71.40
20005;DHT22;69160;45.498;-73.582;2023-06-19T06:34:32;23.50;72.30
20005;DHT22;69160;45.498;-73.582;2023-06-19T06:36:59;23.50;72.00
20005;DHT22;69160;45.498;-73.582;2023-06-19T06:39:25;23.50;72.00
20005;DHT22;69160;45.498;-73.582;2023-06-19T06:41:52;23.50;72.00
20005;DHT22;69160;45.498;-73.582;2023-06-19T06:44:18;23.50;72.00
20005;DHT22;69160;45.498;-73.582;2023-06-19T06:46:44;23.50;72.20
20005;DHT22;69160;45.498;-73.582;2023-06-19T06:49:11;23.50;72.00
20005;DHT22;69160;45.498;-73.582;2023-06-19T06:51:38;23.60;71.90
20005;DHT22;69160;45.498;-73.582;2023-06-19T06:54:04;23.50;71.80
20005;DHT22;69160;45.498;-73.582;2023-06-19T06:56:30;23.50;72.00
20005;DHT22;69160;45.498;-73.582;2023-06-19T06:58:56;23.50;72.20
20005;DHT22;69160;45.498;-73.582;2023-06-19T07:01:22;23.50;71.80
20005;DHT22;69160;45.498;-73.582;2023-06-19T07:03:48;23.50;72.00
20005;DHT22;69160;45.498;-73.582;2023-06-19T07:06:15;23.50;72.10
20005;DHT22;69160;45.498;-73.582;2023-06-19T07:08:41;23.50;72.20
20005;DHT22;69160;45.498;-73.582;2023-06-19T07:11:07;23.50;72.30
20005;DHT22;69160;45.498;-73.582;2023-06-19T07:13:33;23.50;72.10
20005;DHT22;69160;45.498;-73.582;2023-06-19T07:15:59;23.60;72.10
20005;DHT22;69160;45.498;-73.582;2023-06-19T07:18:27;23.60;71.80
20005;DHT22;69160;45.498;-73.582;2023-06-19T07:20:54;23.50;70.80
20005;DHT22;69160;45.498;-73.582;2023-06-19T07:23:20;23.30;69.30
20005;DHT22;69160;45.498;-73.582;2023-06-19T07:25:47;23.30;70.40
20005;DHT22;69160;45.498;-73.582;2023-06-19T07:28:13;23.30;70.50
20005;DHT22;69160;45.498;-73.582;2023-06-19T07:30:39;23.30;70.50
20005;DHT22;69160;45.498;-73.582;2023-06-19T07:33:05;23.40;70.70
20005;DHT22;69160;45.498;-73.582;2023-06-19T07:35:32;23.40;71.00
20005;DHT22;69160;45.498;-73.582;2023-06-19T07:37:58;23.40;70.90
20005;DHT22;69160;45.498;-73.582;2023-06-19T07:40:24;23.40;70.80
20005;DHT22;69160;45.498;-73.582;2023-06-19T07:42:50;23.40;70.80
20005;DHT22;69160;45.498;-73.582;2023-06-19T07:45:16;23.40;70.90
20005;DHT22;69160;45.498;-73.582;2023-06-19T07:47:42;23.40;71.00
20005;DHT22;69160;45.498;-73.582;2023-06-19T07:50:09;23.40;71.50
20005;DHT22;69160;45.498;-73.582;2023-06-19T07:52:35;23.40;71.40
20005;DHT22;69160;45.498;-73.582;2023-06-19T07:55:01;23.40;71.30
20005;DHT22;69160;45.498;-73.582;2023-06-19T07:57:28;23.40;71.40
20005;DHT22;69160;45.498;-73.582;2023-06-19T07:59:54;23.40;71.30
20005;DHT22;69160;45.498;-73.582;2023-06-19T08:02:21;23.40;71.20
20005;DHT22;69160;45.498;-73.582;2023-06-19T08:04:47;23.40;71.70
20005;DHT22;69160;45.498;-73.582;2023-06-19T08:07:13;23.40;71.50
20005;DHT22;69160;45.498;-73.582;2023-06-19T08:09:39;23.40;70.90
20005;DHT22;69160;45.498;-73.582;2023-06-19T08:12:06;23.40;70.80
20005;DHT22;69160;45.498;-73.582;2023-06-19T08:14:32;23.50;70.90
20005;DHT22;69160;45.498;-73.582;2023-06-19T08:16:58;23.40;71.00
20005;DHT22;69160;45.498;-73.582;2023-06-19T08:19:24;23.40;71.20
20005;DHT22;69160;45.498;-73.582;2023-06-19T08:21:50;23.40;71.40
20005;DHT22;69160;45.498;-73.582;2023-06-19T08:24:17;23.40;70.50
20005;DHT22;69160;45.498;-73.582;2023-06-19T08:26:43;23.30;68.60
20005;DHT22;69160;45.498;-73.582;2023-06-19T08:29:09;23.20;69.50
20005;DHT22;69160;45.498;-73.582;2023-06-19T08:31:35;23.20;69.50
20005;DHT22;69160;45.498;-73.582;2023-06-19T08:34:02;23.20;69.90
20005;DHT22;69160;45.498;-73.582;2023-06-19T08:36:33;23.20;70.10
20005;DHT22;69160;45.498;-73.582;2023-06-19T08:38:59;23.30;70.50
20005;DHT22;69160;45.498;-73.582;2023-06-19T08:41:25;23.30;70.50
20005;DHT22;69160;45.498;-73.582;2023-06-19T08:43:52;23.30;70.60
20005;DHT22;69160;45.498;-73.582;2023-06-19T08:46:18;23.30;70.90
20005;DHT22;69160;45.498;-73.582;2023-06-19T08:48:45;23.30;70.90
20005;DHT22;69160;45.498;-73.582;2023-06-19T08:51:12;23.30;70.70
20005;DHT22;69160;45.498;-73.582;2023-06-19T08:53:46;23.30;70.80
20005;DHT22;69160;45.498;-73.582;2023-06-19T08:56:13;23.30;70.90
20005;DHT22;69160;45.498;-73.582;2023-06-19T08:58:39;23.30;71.10
20005;DHT22;69160;45.498;-73.582;2023-06-19T09:01:06;23.30;70.80
20005;DHT22;69160;45.498;-73.582;2023-06-19T09:03:32;23.30;71.10
20005;DHT22;69160;45.498;-73.582;2023-06-19T09:06:03;23.30;70.80
20005;DHT22;69160;45.498;-73.582;2023-06-19T09:08:30;23.30;71.10
20005;DHT22;69160;45.498;-73.582;2023-06-19T09:11:01;23.30;70.90
20005;DHT22;69160;45.498;-73.582;2023-06-19T09:13:28;23.30;71.10
20005;DHT22;69160;45.498;-73.582;2023-06-19T09:16:07;23.30;70.90
20005;DHT22;69160;45.498;-73.582;2023-06-19T09:18:47;23.30;71.00
20005;DHT22;69160;45.498;-73.582;2023-06-19T09:21:20;23.30;70.90
20005;DHT22;69160;45.498;-73.582;2023-06-19T09:23:50;23.30;71.10
20005;DHT22;69160;45.498;-73.582;2023-06-19T09:26:20;23.30;71.10
20005;DHT22;69160;45.498;-73.582;2023-06-19T09:28:46;23.30;70.50
20005;DHT22;69160;45.498;-73.582;2023-06-19T09:31:12;23.10;68.40
20005;DHT22;69160;45.498;-73.582;2023-06-19T09:33:39;23.10;69.70
20005;DHT22;69160;45.498;-73.582;2023-06-19T09:36:06;23.10;70.20
20005;DHT22;69160;45.498;-73.582;2023-06-19T09:38:35;23.10;70.60
20005;DHT22;69160;45.498;-73.582;2023-06-19T09:41:03;23.10;70.50
20005;DHT22;69160;45.498;-73.582;2023-06-19T09:43:43;23.10;70.40
20005;DHT22;69160;45.498;-73.582;2023-06-19T09:46:11;23.20;70.60
20005;DHT22;69160;45.498;-73.582;2023-06-19T09:48:43;23.10;71.00
20005;DHT22;69160;45.498;-73.582;2023-06-19T09:53:39;23.20;71.90
20005;DHT22;69160;45.498;-73.582;2023-06-19T09:56:06;23.20;71.20
20005;DHT22;69160;45.498;-73.582;2023-06-19T09:58:34;23.20;71.30
20005;DHT22;69160;45.498;-73.582;2023-06-19T10:01:01;23.20;71.20
20005;DHT22;69160;45.498;-73.582;2023-06-19T10:03:31;23.20;71.20
20005;DHT22;69160;45.498;-73.582;2023-06-19T10:05:58;23.20;71.40
20005;DHT22;69160;45.498;-73.582;2023-06-19T10:08:40;23.20;71.40
20005;DHT22;69160;45.498;-73.582;2023-06-19T10:11:06;23.30;71.20
20005;DHT22;69160;45.498;-73.582;2023-06-19T10:13:37;23.30;71.20
20005;DHT22;69160;45.498;-73.582;2023-06-19T10:16:07;23.30;71.40
20005;DHT22;69160;45.498;-73.582;2023-06-19T10:18:45;23.20;71.40
20005;DHT22;69160;45.498;-73.582;2023-06-19T10:21:22;23.20;71.30
20005;DHT22;69160;45.498;-73.582;2023-06-19T10:23:57;23.20;71.30
20005;DHT22;69160;45.498;-73.582;2023-06-19T10:26:36;23.20;71.40
20005;DHT22;69160;45.498;-73.582;2023-06-19T10:29:16;23.20;71.20
20005;DHT22;69160;45.498;-73.582;2023-06-19T10:31:43;23.20;70.60
20005;DHT22;69160;45.498;-73.582;2023-06-19T10:34:11;23.10;68.80
20005;DHT22;69160;45.498;-73.582;2023-06-19T10:36:37;23.00;69.60
20005;DHT22;69160;45.498;-73.582;2023-06-19T10:39:04;23.00;70.20
20005;DHT22;69160;45.498;-73.582;2023-06-19T10:41:30;23.00;70.60
20005;DHT22;69160;45.498;-73.582;2023-06-19T10:43:58;23.10;70.50
20005;DHT22;69160;45.498;-73.582;2023-06-19T10:46:29;23.10;70.90
20005;DHT22;69160;45.498;-73.582;2023-06-19T10:48:55;23.10;71.30
20005;DHT22;69160;45.498;-73.582;2023-06-19T10:51:40;23.10;71.10
20005;DHT22;69160;45.498;-73.582;2023-06-19T10:54:10;23.10;70.90
20005;DHT22;69160;45.498;-73.582;2023-06-19T10:56:36;23.20;71.30
20005;DHT22;69160;45.498;-73.582;2023-06-19T11:01:40;23.20;71.40
20005;DHT22;69160;45.498;-73.582;2023-06-19T11:04:08;23.20;71.40
20005;DHT22;69160;45.498;-73.582;2023-06-19T11:06:35;23.20;71.60
20005;DHT22;69160;45.498;-73.582;2023-06-19T11:09:02;23.20;72.30
20005;DHT22;69160;45.498;-73.582;2023-06-19T11:11:47;23.20;72.20
20005;DHT22;69160;45.498;-73.582;2023-06-19T11:14:15;23.20;72.20
20005;DHT22;69160;45.498;-73.582;2023-06-19T11:16:46;23.20;72.30
20005;DHT22;69160;45.498;-73.582;2023-06-19T11:19:20;23.20;72.60
20005;DHT22;69160;45.498;-73.582;2023-06-19T11:21:49;23.20;72.40
20005;DHT22;69160;45.498;-73.582;2023-06-19T11:24:15;23.20;72.40
20005;DHT22;69160;45.498;-73.582;2023-06-19T11:26:46;23.20;72.00
20005;DHT22;69160;45.498;-73.582;2023-06-19T11:29:16;23.20;72.40
20005;DHT22;69160;45.498;-73.582;2023-06-19T11:31:44;23.20;72.00
20005;DHT22;69160;45.498;-73.582;2023-06-19T11:34:11;23.20;72.40
20005;DHT22;69160;45.498;-73.582;2023-06-19T11:36:38;23.30;72.20
20005;DHT22;69160;45.498;-73.582;2023-06-19T11:39:13;23.20;72.30
20005;DHT22;69160;45.498;-73.582;2023-06-19T11:41:40;23.20;72.10
20005;DHT22;69160;45.498;-73.582;2023-06-19T11:44:09;23.20;72.10
20005;DHT22;69160;45.498;-73.582;2023-06-19T11:46:36;23.30;72.90
20005;DHT22;69160;45.498;-73.582;2023-06-19T11:49:17;23.30;72.70
20005;DHT22;69160;45.498;-73.582;2023-06-19T11:51:44;23.30;73.30
20005;DHT22;69160;45.498;-73.582;2023-06-19T11:54:11;23.30;73.90
20005;DHT22;69160;45.498;-73.582;2023-06-19T11:56:39;23.30;74.90
20005;DHT22;69160;45.498;-73.582;2023-06-19T11:59:06;23.30;74.40
20005;DHT22;69160;45.498;-73.582;2023-06-19T12:01:33;23.40;74.40
20005;DHT22;69160;45.498;-73.582;2023-06-19T12:04:03;23.40;74.00
20005;DHT22;69160;45.498;-73.582;2023-06-19T12:06:30;23.40;74.00
20005;DHT22;69160;45.498;-73.582;2023-06-19T12:08:56;23.40;73.90
20005;DHT22;69160;45.498;-73.582;2023-06-19T12:11:22;23.40;74.70
20005;DHT22;69160;45.498;-73.582;2023-06-19T12:13:50;23.30;73.00
20005;DHT22;69160;45.498;-73.582;2023-06-19T12:16:19;23.10;73.10
20005;DHT22;69160;45.498;-73.582;2023-06-19T12:18:45;23.00;72.00
20005;DHT22;69160;45.498;-73.582;2023-06-19T12:21:11;22.80;72.00
20005;DHT22;69160;45.498;-73.582;2023-06-19T12:23:37;22.70;71.90
20005;DHT22;69160;45.498;-73.582;2023-06-19T12:26:03;22.50;71.90
20005;DHT22;69160;45.498;-73.582;2023-06-19T12:28:29;22.50;74.10
20005;DHT22;69160;45.498;-73.582;2023-06-19T12:30:56;22.50;73.90
20005;DHT22;69160;45.498;-73.582;2023-06-19T12:33:22;22.40;73.80
20005;DHT22;69160;45.498;-73.582;2023-06-19T12:35:48;22.40;73.50
20005;DHT22;69160;45.498;-73.582;2023-06-19T12:38:14;22.40;72.90
20005;DHT22;69160;45.498;-73.582;2023-06-19T12:40:41;22.50;73.00
20005;DHT22;69160;45.498;-73.582;2023-06-19T12:43:07;22.50;73.00
20005;DHT22;69160;45.498;-73.582;2023-06-19T12:45:33;22.50;72.60
20005;DHT22;69160;45.498;-73.582;2023-06-19T12:48:00;22.50;72.50
20005;DHT22;69160;45.498;-73.582;2023-06-19T12:50:26;22.50;72.60
20005;DHT22;69160;45.498;-73.582;2023-06-19T12:52:52;22.40;72.00
20005;DHT22;69160;45.498;-73.582;2023-06-19T12:55:18;22.40;72.40
20005;DHT22;69160;45.498;-73.582;2023-06-19T12:57:44;22.40;72.20
20005;DHT22;69160;45.498;-73.582;2023-06-19T13:00:11;22.40;72.10
20005;DHT22;69160;45.498;-73.582;2023-06-19T13:02:38;22.40;72.60
20005;DHT22;69160;45.498;-73.582;2023-06-19T13:05:09;22.40;72.40
20005;DHT22;69160;45.498;-73.582;2023-06-19T13:07:36;22.30;72.10
20005;DHT22;69160;45.498;-73.582;2023-06-19T13:10:02;22.30;72.60
20005;DHT22;69160;45.498;-73.582;2023-06-19T13:12:29;22.30;72.60
20005;DHT22;69160;45.498;-73.582;2023-06-19T13:14:55;22.40;72.80
20005;DHT22;69160;45.498;-73.582;2023-06-19T13:17:21;22.40;72.70
20005;DHT22;69160;45.498;-73.582;2023-06-19T13:19:47;22.40;72.70
20005;DHT22;69160;45.498;-73.582;2023-06-19T13:22:13;22.40;72.70
20005;DHT22;69160;45.498;-73.582;2023-06-19T13:24:39;22.30;72.60
20005;DHT22;69160;45.498;-73.582;2023-06-19T13:27:06;22.20;72.50
20005;DHT22;69160;45.498;-73.582;2023-06-19T13:29:33;22.30;72.90
20005;DHT22;69160;45.498;-73.582;2023-06-19T13:31:59;22.20;73.20
20005;DHT22;69160;45.498;-73.582;2023-06-19T13:34:26;22.20;72.90
20005;DHT22;69160;45.498;-73.582;2023-06-19T13:36:52;22.30;72.90
20005;DHT22;69160;45.498;-73.582;2023-06-19T13:39:18;22.30;72.40
20005;DHT22;69160;45.498;-73.582;2023-06-19T13:41:47;22.20;72.20
20005;DHT22;69160;45.498;-73.582;2023-06-19T13:44:14;22.20;72.40
20005;DHT22;69160;45.498;-73.582;2023-06-19T13:46:40;22.20;72.40
20005;DHT22;69160;45.498;-73.582;2023-06-19T13:49:06;22.20;72.20
20005;DHT22;69160;45.498;-73.582;2023-06-19T13:51:32;22.30;73.20
20005;DHT22;69160;45.498;-73.582;2023-06-19T13:53:58;22.30;73.70
20005;DHT22;69160;45.498;-73.582;2023-06-19T13:56:24;22.50;74.20
20005;DHT22;69160;45.498;-73.582;2023-06-19T13:58:51;22.50;72.20
20005;DHT22;69160;45.498;-73.582;2023-06-19T14:01:17;22.40;72.10
20005;DHT22;69160;45.498;-73.582;2023-06-19T14:03:43;22.30;72.40
20005;DHT22;69160;45.498;-73.582;2023-06-19T14:06:09;22.20;72.60
20005;DHT22;69160;45.498;-73.582;2023-06-19T14:08:35;22.10;73.00
20005;DHT22;69160;45.498;-73.582;2023-06-19T14:11:02;22.10;74.00
20005;DHT22;69160;45.498;-73.582;2023-06-19T14:13:28;22.10;74.80
20005;DHT22;69160;45.498;-73.582;2023-06-19T14:15:54;22.20;75.70
20005;DHT22;69160;45.498;-73.582;2023-06-19T14:18:20;22.20;74.80
20005;DHT22;69160;45.498;-73.582;2023-06-19T14:20:46;22.10;76.40
20005;DHT22;69160;45.498;-73.582;2023-06-19T14:23:12;22.10;76.00
20005;DHT22;69160;45.498;-73.582;2023-06-19T14:25:38;22.20;78.60
20005;DHT22;69160;45.498;-73.582;2023-06-19T14:28:05;22.30;83.10
20005;DHT22;69160;45.498;-73.582;2023-06-19T14:30:31;22.20;79.40
20005;DHT22;69160;45.498;-73.582;2023-06-19T14:32:57;22.00;77.40
20005;DHT22;69160;45.498;-73.582;2023-06-19T14:35:23;22.00;76.80
20005;DHT22;69160;45.498;-73.582;2023-06-19T14:37:49;22.00;75.30
20005;DHT22;69160;45.498;-73.582;2023-06-19T14:40:16;22.00;74.20
20005;DHT22;69160;45.498;-73.582;2023-06-19T14:42:42;22.00;75.50
20005;DHT22;69160;45.498;-73.582;2023-06-19T14:45:08;22.00;76.40
20005;DHT22;69160;45.498;-73.582;2023-06-19T14:47:34;22.00;81.20
20005;DHT22;69160;45.498;-73.582;2023-06-19T14:50:00;21.90;77.70
20005;DHT22;69160;45.498;-73.582;2023-06-19T14:52:27;21.90;77.20
20005;DHT22;69160;45.498;-73.582;2023-06-19T14:54:53;22.00;81.10
20005;DHT22;69160;45.498;-73.582;2023-06-19T14:57:19;22.10;80.10
20005;DHT22;69160;45.498;-73.582;2023-06-19T14:59:46;22.00;78.30
20005;DHT22;69160;45.498;-73.582;2023-06-19T15:02:12;21.90;77.00
20005;DHT22;69160;45.498;-73.582;2023-06-19T15:04:38;21.90;77.40
20005;DHT22;69160;45.498;-73.582;2023-06-19T15:07:04;22.00;77.20
20005;DHT22;69160;45.498;-73.582;2023-06-19T15:09:31;22.20;80.10
20005;DHT22;69160;45.498;-73.582;2023-06-19T15:11:57;22.20;79.30